createdAt,value
2022-09-28T00:00:40.156Z,97.27
2022-09-28T00:01:40.471Z,97.37
2022-09-28T00:02:41.747Z,97.37
2022-09-28T00:03:40.858Z,97.37
2022-09-28T00:04:40.085Z,97.47
2022-09-28T00:05:40.301Z,97.57
2022-09-28T00:06:40.526Z,97.67
2022-09-28T00:07:40.758Z,97.67
2022-09-28T00:08:39.866Z,97.78
2022-09-28T00:09:40.139Z,97.78
2022-09-28T00:10:40.365Z,97.88
2022-09-28T00:11:40.605Z,97.88
2022-09-28T00:12:40.858Z,97.88
2022-09-28T00:13:40.069Z,97.88
2022-09-28T00:14:40.438Z,97.88
2022-09-28T00:15:40.581Z,97.99
2022-09-28T00:16:39.950Z,98.08
2022-09-28T00:17:40.061Z,98.19
2022-09-28T00:18:40.310Z,98.33
2022-09-28T00:19:40.583Z,98.44
2022-09-28T00:20:40.044Z,98.54
2022-09-28T00:21:40.021Z,98.54
2022-09-28T00:22:40.267Z,98.65
2022-09-28T00:23:40.514Z,98.75
2022-09-28T00:24:40.767Z,98.75
2022-09-28T00:25:40.001Z,98.75
2022-09-28T00:26:40.229Z,98.85
2022-09-28T00:27:40.472Z,98.85
2022-09-28T00:28:39.710Z,98.85
2022-09-28T00:29:39.959Z,98.85
2022-09-28T00:30:40.224Z,98.85
2022-09-28T00:31:40.554Z,98.96
2022-09-28T00:32:39.681Z,99.05
2022-09-28T00:33:39.936Z,99.05
2022-09-28T00:34:40.196Z,99.16
2022-09-28T00:35:40.453Z,99.05
2022-09-28T00:36:39.635Z,99.05
2022-09-28T00:37:39.863Z,98.96
2022-09-28T00:38:40.057Z,98.96
2022-09-28T00:39:40.273Z,98.85
2022-09-28T00:40:39.492Z,98.85
2022-09-28T00:41:40.819Z,98.85
2022-09-28T00:42:39.961Z,98.96
2022-09-28T00:43:40.208Z,98.85
2022-09-28T00:44:40.483Z,98.49
2022-09-28T00:45:39.737Z,98.44
2022-09-28T00:46:39.944Z,98.54
2022-09-28T00:47:40.277Z,98.44
2022-09-28T00:48:39.412Z,98.07
2022-09-28T00:49:39.671Z,97.77
2022-09-28T00:50:39.917Z,97.56
2022-09-28T00:51:40.180Z,97.66
2022-09-28T00:52:39.456Z,97.87
2022-09-28T00:53:39.747Z,97.97
2022-09-28T00:54:39.918Z,97.92
2022-09-28T00:55:40.177Z,97.97
2022-09-28T00:56:39.370Z,98.07
2022-09-28T00:57:39.633Z,98.18
2022-09-28T00:58:39.862Z,98.07
2022-09-28T00:59:41.970Z,98.18
2022-09-28T01:00:39.312Z,97.97
2022-09-28T01:01:39.568Z,98.07
2022-09-28T01:02:39.756Z,98.28
2022-09-28T01:03:40.004Z,98.38
2022-09-28T01:04:39.218Z,98.38
2022-09-28T01:05:39.454Z,98.49
2022-09-28T01:06:39.707Z,98.49
2022-09-28T01:07:39.957Z,98.69
2022-09-28T01:08:39.162Z,98.79
2022-09-28T01:09:39.759Z,98.79
2022-09-28T01:10:39.716Z,98.79
2022-09-28T01:11:39.875Z,98.59
2022-09-28T01:12:39.085Z,98.49
2022-09-28T01:13:39.344Z,98.59
2022-09-28T01:14:39.588Z,98.59
2022-09-28T01:15:40.057Z,98.49
2022-09-28T01:16:39.184Z,98.28
2022-09-28T01:17:39.351Z,98.07
2022-09-28T01:18:39.578Z,97.97
2022-09-28T01:19:39.828Z,97.77
2022-09-28T01:20:39.035Z,97.87
2022-09-28T01:21:39.328Z,97.97
2022-09-28T01:22:39.537Z,98.07
2022-09-28T01:23:38.739Z,98.18
2022-09-28T01:24:38.996Z,98.07
2022-09-28T01:25:39.260Z,97.97
2022-09-28T01:26:39.592Z,97.87
2022-09-28T01:27:38.751Z,97.97
2022-09-28T01:28:39.009Z,98.18
2022-09-28T01:29:39.268Z,98.28
2022-09-28T01:30:39.698Z,98.38
2022-09-28T01:31:38.790Z,98.43
2022-09-28T01:32:39.050Z,98.12
2022-09-28T01:33:40.201Z,97.81
2022-09-28T01:34:39.520Z,97.71
2022-09-28T01:35:38.703Z,97.61
2022-09-28T01:36:39.922Z,97.61
2022-09-28T01:37:39.221Z,97.81
2022-09-28T01:38:39.576Z,97.61
2022-09-28T01:39:38.673Z,97.40
2022-09-28T01:40:38.956Z,97.19
2022-09-28T01:41:39.148Z,96.89
2022-09-28T01:42:39.471Z,96.89
2022-09-28T01:43:38.611Z,96.58
2022-09-28T01:44:38.848Z,96.58
2022-09-28T01:45:39.103Z,96.78
2022-09-28T01:46:39.317Z,96.89
2022-09-28T01:47:38.510Z,97.09
2022-09-28T01:48:38.790Z,97.30
2022-09-28T01:49:38.546Z,97.50
2022-09-28T01:50:38.788Z,97.61
2022-09-28T01:51:39.042Z,97.71
2022-09-28T01:52:39.270Z,97.81
2022-09-28T01:53:38.486Z,98.02
2022-09-28T01:54:38.788Z,97.91
2022-09-28T01:55:38.972Z,98.02
2022-09-28T01:56:39.204Z,97.91
2022-09-28T01:57:38.409Z,97.91
2022-09-28T01:58:38.681Z,97.91
2022-09-28T01:59:38.931Z,97.91
2022-09-28T02:00:39.355Z,98.02
2022-09-28T02:01:38.449Z,98.16
2022-09-28T02:02:38.621Z,98.22
2022-09-28T02:03:38.891Z,98.37
2022-09-28T02:04:39.123Z,98.47
2022-09-28T02:05:38.419Z,98.43
2022-09-28T02:06:38.605Z,98.43
2022-09-28T02:07:38.882Z,98.43
2022-09-28T02:08:39.132Z,98.43
2022-09-28T02:09:38.340Z,98.43
2022-09-28T02:10:38.628Z,98.43
2022-09-28T02:11:38.895Z,98.33
2022-09-28T02:12:39.127Z,98.27
2022-09-28T02:13:38.357Z,98.16
2022-09-28T02:14:38.641Z,98.27
2022-09-28T02:15:38.900Z,98.27
2022-09-28T02:16:38.366Z,98.27
2022-09-28T02:17:38.370Z,98.27
2022-09-28T02:18:38.653Z,98.37
2022-09-28T02:19:38.883Z,98.47
2022-09-28T02:20:38.095Z,98.47
2022-09-28T02:21:38.373Z,98.58
2022-09-28T02:22:38.638Z,98.79
2022-09-28T02:23:38.878Z,98.88
2022-09-28T02:24:38.097Z,98.88
2022-09-28T02:25:38.330Z,98.79
2022-09-28T02:26:38.587Z,98.79
2022-09-28T02:27:38.880Z,98.68
2022-09-28T02:28:38.041Z,98.68
2022-09-28T02:29:38.302Z,98.68
2022-09-28T02:30:38.559Z,98.79
2022-09-28T02:31:38.861Z,98.88
2022-09-28T02:32:38.017Z,98.99
2022-09-28T02:33:38.332Z,99.09
2022-09-28T02:34:38.578Z,99.09
2022-09-28T02:35:37.930Z,98.99
2022-09-28T02:36:38.192Z,98.88
2022-09-28T02:37:37.889Z,98.99
2022-09-28T02:38:38.144Z,99.19
2022-09-28T02:39:38.423Z,99.30
2022-09-28T02:40:38.714Z,99.30
2022-09-28T02:41:37.864Z,99.19
2022-09-28T02:42:38.108Z,99.19
2022-09-28T02:43:38.384Z,99.30
2022-09-28T02:44:38.643Z,99.30
2022-09-28T02:45:37.916Z,99.30
2022-09-28T02:46:37.798Z,99.30
2022-09-28T02:47:39.072Z,99.19
2022-09-28T02:48:43.918Z,99.19
2022-09-28T02:49:39.535Z,99.09
2022-09-28T02:50:37.698Z,99.19
2022-09-28T02:51:37.938Z,99.19
2022-09-28T02:52:38.163Z,99.30
2022-09-28T02:53:38.429Z,99.40
2022-09-28T02:54:37.612Z,99.51
2022-09-28T02:55:38.062Z,99.51
2022-09-28T02:56:38.094Z,99.40
2022-09-28T02:57:39.193Z,99.40
2022-09-28T02:58:37.548Z,99.40
2022-09-28T02:59:37.814Z,99.40
2022-09-28T03:00:38.109Z,99.40
2022-09-28T03:01:38.457Z,99.30
2022-09-28T03:02:37.639Z,99.09
2022-09-28T03:03:37.835Z,99.09
2022-09-28T03:04:38.082Z,99.09
2022-09-28T03:05:38.324Z,99.19
2022-09-28T03:06:38.652Z,99.19
2022-09-28T03:07:37.787Z,99.19
2022-09-28T03:08:38.019Z,99.19
2022-09-28T03:09:38.270Z,99.19
2022-09-28T03:10:37.466Z,99.30
2022-09-28T03:11:37.723Z,99.40
2022-09-28T03:12:38.228Z,99.30
2022-09-28T03:13:39.201Z,99.30
2022-09-28T03:14:37.440Z,99.30
2022-09-28T03:15:37.704Z,99.30
2022-09-28T03:16:38.049Z,99.30
2022-09-28T03:17:38.604Z,99.30
2022-09-28T03:18:37.501Z,99.30
2022-09-28T03:19:37.794Z,99.40
2022-09-28T03:20:38.061Z,99.40
2022-09-28T03:21:37.324Z,99.51
2022-09-28T03:22:37.607Z,99.51
2022-09-28T03:23:37.925Z,99.51
2022-09-28T03:24:38.149Z,99.40
2022-09-28T03:25:37.378Z,99.51
2022-09-28T03:26:37.653Z,99.51
2022-09-28T03:27:37.914Z,99.71
2022-09-28T03:28:38.196Z,99.81
2022-09-28T03:29:37.446Z,99.81
2022-09-28T03:30:37.729Z,99.71
2022-09-28T03:31:38.066Z,99.71
2022-09-28T03:32:37.233Z,99.60
2022-09-28T03:33:37.512Z,99.71
2022-09-28T03:34:37.789Z,99.60
2022-09-28T03:35:38.068Z,99.60
2022-09-28T03:36:38.572Z,99.71
2022-09-28T03:37:37.978Z,99.71
2022-09-28T03:38:38.153Z,99.71
2022-09-28T03:39:37.357Z,99.60
2022-09-28T03:40:37.697Z,99.60
2022-09-28T03:41:37.865Z,99.60
2022-09-28T03:42:37.062Z,99.60
2022-09-28T03:43:37.306Z,99.60
2022-09-28T03:44:37.616Z,99.60
2022-09-28T03:45:37.836Z,99.51
2022-09-28T03:46:37.018Z,99.40
2022-09-28T03:47:37.294Z,99.40
2022-09-28T03:48:37.568Z,99.30
2022-09-28T03:49:37.827Z,99.30
2022-09-28T03:50:38.078Z,99.19
2022-09-28T03:51:37.286Z,98.88
2022-09-28T03:52:37.528Z,98.99
2022-09-28T03:53:37.793Z,98.88
2022-09-28T03:54:36.998Z,98.79
2022-09-28T03:55:37.312Z,98.68
2022-09-28T03:56:37.507Z,98.58
2022-09-28T03:57:36.715Z,98.47
2022-09-28T03:58:36.961Z,98.47
2022-09-28T03:59:37.211Z,98.16
2022-09-28T04:00:37.510Z,98.16
2022-09-28T04:01:37.822Z,98.27
2022-09-28T04:02:37.024Z,98.37
2022-09-28T04:03:38.066Z,98.22
2022-09-28T04:04:37.364Z,97.96
2022-09-28T04:05:37.628Z,98.06
2022-09-28T04:06:36.828Z,98.27
2022-09-28T04:07:37.058Z,98.27
2022-09-28T04:08:37.285Z,98.27
2022-09-28T04:09:37.537Z,98.16
2022-09-28T04:10:36.755Z,98.27
2022-09-28T04:11:53.136Z,98.27
2022-09-28T04:12:38.254Z,98.33
2022-09-28T04:13:37.503Z,98.43
2022-09-28T04:14:36.902Z,98.58
2022-09-28T04:15:36.988Z,98.47
2022-09-28T04:16:37.272Z,98.58
2022-09-28T04:17:40.055Z,98.58
2022-09-28T04:18:36.687Z,98.58
2022-09-28T04:19:36.948Z,98.58
2022-09-28T04:20:37.195Z,98.68
2022-09-28T04:21:37.724Z,98.58
2022-09-28T04:22:36.628Z,98.68
2022-09-28T04:23:36.855Z,98.58
2022-09-28T04:24:37.098Z,98.58
2022-09-28T04:25:37.326Z,98.58
2022-09-28T04:26:36.531Z,98.58
2022-09-28T04:27:36.827Z,98.68
2022-09-28T04:28:37.049Z,98.68
2022-09-28T04:29:37.276Z,98.79
2022-09-28T04:30:36.500Z,98.88
2022-09-28T04:31:36.821Z,98.88
2022-09-28T04:32:37.005Z,98.99
2022-09-28T04:33:37.266Z,98.99
2022-09-28T04:34:39.611Z,99.09
2022-09-28T04:35:37.726Z,99.40
2022-09-28T04:36:36.978Z,99.60
2022-09-28T04:37:37.249Z,99.71
2022-09-28T04:38:52.253Z,99.91
2022-09-28T04:39:37.729Z,99.91
2022-09-28T04:40:37.083Z,99.99
2022-09-28T04:41:36.217Z,99.99
2022-09-28T04:42:36.477Z,99.99
2022-09-28T04:43:36.726Z,99.99
2022-09-28T04:44:36.978Z,99.99
2022-09-28T04:45:37.268Z,99.99
2022-09-28T04:46:36.434Z,99.99
2022-09-28T04:47:36.672Z,99.99
2022-09-28T04:48:36.938Z,99.99
2022-09-28T04:49:37.214Z,99.99
2022-09-28T04:50:36.393Z,99.99
2022-09-28T04:51:36.668Z,99.99
2022-09-28T04:52:37.066Z,99.99
2022-09-28T04:53:36.126Z,99.99
2022-09-28T04:54:36.372Z,99.99
2022-09-28T04:55:36.664Z,99.99
2022-09-28T04:56:36.865Z,99.99
2022-09-28T04:57:37.105Z,99.99
2022-09-28T04:58:36.298Z,99.99
2022-09-28T04:59:36.539Z,99.99
2022-09-28T05:00:36.811Z,99.99
2022-09-28T05:01:37.126Z,99.99
2022-09-28T05:02:36.305Z,99.99
2022-09-28T05:03:36.497Z,99.99
2022-09-28T05:04:36.754Z,99.99
2022-09-28T05:05:36.123Z,99.99
2022-09-28T05:06:36.244Z,99.99
2022-09-28T05:07:36.552Z,99.99
2022-09-28T05:08:36.682Z,99.99
2022-09-28T05:09:38.586Z,99.99
2022-09-28T05:10:36.243Z,99.99
2022-09-28T05:11:36.447Z,99.55
2022-09-28T05:12:36.648Z,99.34
2022-09-28T05:13:35.841Z,99.44
2022-09-28T05:14:36.097Z,99.34
2022-09-28T05:15:36.362Z,99.24
2022-09-28T05:16:36.668Z,99.24
2022-09-28T05:17:36.012Z,99.24
2022-09-28T05:18:36.136Z,99.34
2022-09-28T05:19:36.396Z,99.34
2022-09-28T05:20:36.649Z,99.34
2022-09-28T05:21:35.857Z,99.44
2022-09-28T05:22:36.520Z,99.24
2022-09-28T05:23:36.386Z,99.24
2022-09-28T05:24:35.617Z,99.24
2022-09-28T05:25:35.876Z,99.24
2022-09-28T05:26:36.157Z,99.14
2022-09-28T05:27:36.415Z,99.04
2022-09-28T05:28:35.680Z,99.24
2022-09-28T05:29:35.879Z,99.34
2022-09-28T05:30:36.149Z,99.24
2022-09-28T05:31:36.449Z,99.34
2022-09-28T05:32:35.650Z,99.34
2022-09-28T05:33:35.925Z,99.34
2022-09-28T05:34:36.176Z,99.44
2022-09-28T05:35:36.390Z,99.44
2022-09-28T05:36:35.606Z,99.34
2022-09-28T05:37:35.863Z,99.44
2022-09-28T05:38:36.110Z,99.55
2022-09-28T05:39:36.393Z,99.76
2022-09-28T05:40:35.633Z,99.76
2022-09-28T05:41:35.819Z,99.65
2022-09-28T05:42:36.073Z,99.44
2022-09-28T05:43:36.337Z,99.55
2022-09-28T05:44:35.521Z,99.76
2022-09-28T05:45:35.848Z,99.76
2022-09-28T05:46:36.061Z,99.65
2022-09-28T05:47:36.293Z,99.44
2022-09-28T05:48:35.496Z,99.44
2022-09-28T05:49:35.749Z,99.44
2022-09-28T05:50:36.001Z,99.34
2022-09-28T05:51:36.268Z,99.34
2022-09-28T05:52:35.484Z,99.44
2022-09-28T05:53:35.719Z,99.44
2022-09-28T05:54:35.996Z,99.44
2022-09-28T05:55:35.186Z,99.65
2022-09-28T05:56:35.574Z,99.76
2022-09-28T05:57:35.728Z,99.76
2022-09-28T05:58:35.988Z,99.76
2022-09-28T05:59:35.190Z,99.76
2022-09-28T06:00:35.442Z,99.76
2022-09-28T06:01:35.756Z,99.86
2022-09-28T06:02:35.995Z,99.86
2022-09-28T06:03:35.110Z,99.96
2022-09-28T06:04:35.377Z,99.96
2022-09-28T06:05:35.619Z,99.86
2022-09-28T06:06:35.854Z,99.65
2022-09-28T06:07:35.369Z,99.76
2022-09-28T06:08:36.358Z,99.76
2022-09-28T06:09:35.595Z,99.55
2022-09-28T06:10:35.856Z,99.55
2022-09-28T06:11:35.070Z,99.71
2022-09-28T06:12:35.340Z,99.71
2022-09-28T06:13:35.630Z,99.65
2022-09-28T06:14:35.937Z,99.55
2022-09-28T06:15:35.088Z,99.71
2022-09-28T06:16:37.364Z,99.71
2022-09-28T06:17:35.599Z,99.71
2022-09-28T06:18:35.862Z,99.51
2022-09-28T06:19:35.200Z,99.30
2022-09-28T06:20:35.379Z,99.40
2022-09-28T06:21:35.622Z,99.40
2022-09-28T06:22:34.855Z,99.51
2022-09-28T06:23:35.110Z,99.30
2022-09-28T06:24:36.155Z,99.09
2022-09-28T06:25:35.635Z,98.88
2022-09-28T06:26:34.905Z,98.99
2022-09-28T06:27:35.120Z,99.19
2022-09-28T06:28:35.402Z,99.40
2022-09-28T06:29:35.665Z,99.19
2022-09-28T06:30:35.049Z,99.19
2022-09-28T06:31:35.186Z,99.09
2022-09-28T06:32:36.201Z,99.19
2022-09-28T06:33:35.662Z,99.09
2022-09-28T06:34:34.900Z,99.09
2022-09-28T06:35:35.186Z,99.09
2022-09-28T06:36:35.425Z,98.79
2022-09-28T06:37:35.667Z,98.58
2022-09-28T06:38:34.868Z,98.47
2022-09-28T06:39:35.129Z,98.27
2022-09-28T06:40:35.529Z,97.86
2022-09-28T06:41:34.612Z,98.06
2022-09-28T06:42:34.858Z,98.37
2022-09-28T06:43:35.097Z,98.37
2022-09-28T06:44:35.360Z,98.33
2022-09-28T06:45:34.597Z,98.43
2022-09-28T06:46:34.965Z,98.53
2022-09-28T06:47:35.086Z,98.63
2022-09-28T06:48:35.371Z,98.63
2022-09-28T06:49:34.570Z,98.33
2022-09-28T06:50:34.855Z,98.33
2022-09-28T06:51:35.109Z,98.22
2022-09-28T06:52:35.388Z,98.12
2022-09-28T06:53:34.602Z,98.12
2022-09-28T06:54:34.898Z,98.22
2022-09-28T06:55:35.157Z,98.02
2022-09-28T06:56:35.454Z,97.50
2022-09-28T06:57:34.669Z,97.40
2022-09-28T06:58:34.945Z,97.61
2022-09-28T06:59:35.202Z,97.71
2022-09-28T07:00:34.443Z,97.61
2022-09-28T07:01:34.722Z,97.61
2022-09-28T07:02:35.061Z,97.71
2022-09-28T07:03:35.171Z,98.12
2022-09-28T07:04:34.427Z,97.71
2022-09-28T07:05:34.645Z,97.81
2022-09-28T07:06:34.909Z,97.71
2022-09-28T07:07:35.192Z,97.50
2022-09-28T07:08:34.399Z,97.30
2022-09-28T07:09:37.299Z,97.09
2022-09-28T07:10:35.919Z,97.30
2022-09-28T07:11:35.171Z,97.71
2022-09-28T07:12:34.428Z,97.50
2022-09-28T07:13:49.614Z,97.09
2022-09-28T07:14:47.357Z,97.09
2022-09-28T07:15:35.130Z,97.40
2022-09-28T07:16:58.195Z,97.45
2022-09-28T07:17:44.276Z,97.66
2022-09-28T07:18:35.927Z,97.25
2022-09-28T07:19:34.153Z,97.15
2022-09-28T07:20:42.440Z,96.73
2022-09-28T07:21:35.640Z,96.73
2022-09-28T07:22:42.800Z,96.73
2022-09-28T07:23:46.629Z,96.43
2022-09-28T07:24:35.390Z,96.43
2022-09-28T07:25:34.596Z,96.43
2022-09-28T07:26:35.829Z,96.22
2022-09-28T07:27:35.110Z,96.22
2022-09-28T07:28:34.319Z,96.12
2022-09-28T07:29:34.808Z,96.53
2022-09-28T07:30:34.864Z,96.12
2022-09-28T07:31:34.047Z,96.12
2022-09-28T07:32:34.306Z,96.33
2022-09-28T07:33:34.564Z,96.02
2022-09-28T07:34:34.795Z,96.12
2022-09-28T07:35:35.132Z,96.22
2022-09-28T07:36:34.262Z,96.53
2022-09-28T07:37:34.513Z,96.33
2022-09-28T07:38:34.731Z,96.22
2022-09-28T07:39:33.937Z,96.02
2022-09-28T07:40:34.257Z,96.33
2022-09-28T07:41:34.520Z,96.02
2022-09-28T07:42:34.729Z,96.22
2022-09-28T07:43:33.923Z,96.53
2022-09-28T07:44:34.191Z,96.33
2022-09-28T07:45:34.495Z,97.05
2022-09-28T07:46:34.725Z,96.84
2022-09-28T07:47:35.304Z,96.84
2022-09-28T07:48:34.143Z,97.10
2022-09-28T07:49:34.369Z,96.22
2022-09-28T07:50:34.649Z,96.39
2022-09-28T07:51:33.835Z,95.97
2022-09-28T07:52:34.151Z,95.97
2022-09-28T07:53:34.315Z,95.56
2022-09-28T07:54:34.572Z,95.05
2022-09-28T07:55:33.842Z,95.25
2022-09-28T07:56:34.017Z,95.46
2022-09-28T07:57:34.454Z,95.77
2022-09-28T07:58:34.489Z,95.25
2022-09-28T07:59:33.707Z,95.25
2022-09-28T08:00:34.439Z,95.05
2022-09-28T08:01:34.277Z,94.84
2022-09-28T08:02:34.555Z,95.46
2022-09-28T08:03:33.669Z,95.15
2022-09-28T08:04:33.887Z,95.42
2022-09-28T08:05:34.096Z,95.42
2022-09-28T08:06:34.363Z,94.54
2022-09-28T08:07:33.553Z,94.18
2022-09-28T08:08:33.806Z,94.49
2022-09-28T08:09:36.621Z,95.31
2022-09-28T08:10:34.318Z,94.39
2022-09-28T08:11:33.479Z,94.29
2022-09-28T08:12:33.733Z,94.70
2022-09-28T08:13:33.953Z,95.42
2022-09-28T08:14:34.216Z,95.83
2022-09-28T08:15:34.391Z,94.90
2022-09-28T08:16:33.654Z,94.39
2022-09-28T08:17:33.806Z,94.90
2022-09-28T08:18:34.056Z,94.90
2022-09-28T08:19:34.327Z,94.18
2022-09-28T08:20:33.466Z,93.57
2022-09-28T08:21:33.700Z,93.16
2022-09-28T08:22:33.935Z,94.18
2022-09-28T08:23:34.164Z,93.98
2022-09-28T08:24:33.375Z,93.67
2022-09-28T08:25:33.625Z,93.87
2022-09-28T08:26:33.822Z,93.36
2022-09-28T08:27:34.083Z,93.87
2022-09-28T08:28:33.286Z,93.67
2022-09-28T08:29:33.533Z,93.67
2022-09-28T08:30:34.048Z,93.77
2022-09-28T08:31:34.037Z,93.16
2022-09-28T08:32:33.235Z,93.32
2022-09-28T08:33:33.479Z,93.46
2022-09-28T08:34:33.731Z,93.26
2022-09-28T08:35:34.032Z,93.57
2022-09-28T08:36:34.243Z,93.26
2022-09-28T08:37:33.440Z,93.77
2022-09-28T08:38:33.680Z,94.34
2022-09-28T08:39:33.902Z,95.06
2022-09-28T08:40:33.202Z,94.65
2022-09-28T08:41:33.448Z,93.93
2022-09-28T08:42:33.600Z,94.14
2022-09-28T08:43:33.835Z,93.93
2022-09-28T08:44:34.094Z,93.73
2022-09-28T08:45:33.233Z,93.21
2022-09-28T08:46:33.487Z,93.93
2022-09-28T08:47:33.239Z,93.21
2022-09-28T08:48:33.432Z,93.42
2022-09-28T08:49:33.875Z,92.80
2022-09-28T08:50:33.927Z,93.42
2022-09-28T08:51:33.127Z,94.45
2022-09-28T08:52:33.425Z,94.96
2022-09-28T08:53:33.598Z,93.93
2022-09-28T08:54:33.853Z,94.30
2022-09-28T08:55:33.026Z,94.51
2022-09-28T08:56:33.274Z,94.81
2022-09-28T08:57:33.519Z,93.99
2022-09-28T08:58:33.771Z,93.89
2022-09-28T08:59:32.965Z,94.36
2022-09-28T09:00:33.227Z,94.67
2022-09-28T09:01:33.534Z,94.05
2022-09-28T09:02:33.926Z,93.23
2022-09-28T09:03:32.935Z,93.74
2022-09-28T09:04:33.164Z,94.26
2022-09-28T09:05:33.383Z,94.15
2022-09-28T09:06:33.645Z,93.13
2022-09-28T09:07:32.841Z,91.69
2022-09-28T09:08:33.095Z,92.31
2022-09-28T09:09:34.366Z,92.61
2022-09-28T09:10:33.538Z,92.31
2022-09-28T09:11:33.792Z,92.82
2022-09-28T09:12:33.036Z,92.31
2022-09-28T09:13:33.265Z,91.69
2022-09-28T09:14:33.537Z,91.28
2022-09-28T09:15:32.756Z,92.10
2022-09-28T09:16:33.006Z,92.10
2022-09-28T09:17:33.173Z,90.97
2022-09-28T09:18:33.456Z,90.97
2022-09-28T09:19:33.681Z,90.77
2022-09-28T09:20:32.843Z,90.77
2022-09-28T09:21:33.056Z,90.36
2022-09-28T09:22:33.304Z,89.75
2022-09-28T09:23:33.544Z,89.33
2022-09-28T09:24:32.746Z,90.32
2022-09-28T09:25:37.759Z,91.03
2022-09-28T09:26:34.227Z,91.03
2022-09-28T09:27:33.489Z,91.03
2022-09-28T09:28:32.731Z,89.97
2022-09-28T09:29:33.184Z,89.36
2022-09-28T09:30:33.181Z,88.23
2022-09-28T09:31:33.420Z,89.56
2022-09-28T09:32:32.619Z,88.74
2022-09-28T09:33:32.853Z,87.20
2022-09-28T09:34:33.080Z,87.30
2022-09-28T09:35:33.564Z,86.90
2022-09-28T09:36:32.521Z,88.39
2022-09-28T09:37:32.777Z,87.77
2022-09-28T09:38:33.029Z,85.93
2022-09-28T09:39:33.274Z,86.75
2022-09-28T09:40:32.491Z,85.42
2022-09-28T09:41:32.881Z,87.67
2022-09-28T09:42:32.966Z,87.47
2022-09-28T09:43:33.214Z,86.24
2022-09-28T09:44:32.433Z,85.01
2022-09-28T09:45:32.648Z,85.31
2022-09-28T09:46:32.892Z,85.15
2022-09-28T09:47:33.113Z,86.75
2022-09-28T09:48:32.285Z,87.26
2022-09-28T09:49:32.509Z,86.04
2022-09-28T09:50:32.747Z,86.65
2022-09-28T09:51:32.966Z,85.83
2022-09-28T09:53:36.196Z,85.63
2022-09-28T09:54:33.596Z,85.93
2022-09-28T09:55:32.855Z,86.14
2022-09-28T09:56:33.077Z,86.44
2022-09-28T09:57:32.271Z,87.06
2022-09-28T09:58:32.500Z,86.24
2022-09-28T09:59:32.693Z,87.37
2022-09-28T10:00:32.927Z,86.65
2022-09-28T10:01:32.108Z,85.01
2022-09-28T10:02:32.418Z,85.69
2022-09-28T10:03:32.551Z,86.51
2022-09-28T10:04:32.777Z,85.99
2022-09-28T10:05:32.987Z,85.38
2022-09-28T10:06:32.208Z,85.38
2022-09-28T10:07:32.419Z,84.66
2022-09-28T10:08:32.627Z,85.14
2022-09-28T10:09:32.843Z,84.72
2022-09-28T10:10:32.037Z,82.37
2022-09-28T10:11:32.285Z,83.19
2022-09-28T10:12:32.487Z,82.68
2022-09-28T10:13:32.746Z,81.96
2022-09-28T10:14:31.911Z,82.48
2022-09-28T10:15:33.581Z,83.70
2022-09-28T10:16:32.369Z,83.50
2022-09-28T10:17:32.566Z,82.68
2022-09-28T10:18:31.844Z,82.17
2022-09-28T10:19:32.213Z,83.36
2022-09-28T10:20:32.352Z,82.07
2022-09-28T10:21:32.509Z,82.68
2022-09-28T10:22:31.679Z,82.37
2022-09-28T10:23:32.947Z,82.27
2022-09-28T10:24:32.142Z,81.82
2022-09-28T10:25:32.418Z,81.82
2022-09-28T10:26:32.571Z,83.66
2022-09-28T10:27:31.791Z,82.75
2022-09-28T10:28:32.007Z,81.93
2022-09-28T10:29:32.241Z,80.90
2022-09-28T10:30:32.547Z,82.23
2022-09-28T10:31:32.723Z,83.76
2022-09-28T10:32:31.895Z,82.64
2022-09-28T10:33:32.144Z,81.51
2022-09-28T10:34:32.381Z,82.03
2022-09-28T10:35:32.577Z,81.31
2022-09-28T10:36:32.005Z,80.80
2022-09-28T10:37:32.029Z,81.21
2022-09-28T10:38:32.281Z,81.82
2022-09-28T10:39:32.512Z,81.10
2022-09-28T10:40:31.752Z,81.31
2022-09-28T10:41:31.912Z,82.64
2022-09-28T10:42:32.214Z,81.62
2022-09-28T10:43:32.405Z,81.72
2022-09-28T10:44:31.577Z,80.80
2022-09-28T10:45:31.781Z,81.51
2022-09-28T10:46:32.074Z,82.23
2022-09-28T10:47:32.258Z,82.29
2022-09-28T10:48:32.494Z,82.29
2022-09-28T10:49:31.681Z,82.40
2022-09-28T10:50:31.903Z,80.66
2022-09-28T10:51:32.122Z,81.79
2022-09-28T10:52:31.290Z,81.79
2022-09-28T10:53:31.560Z,80.25
2022-09-28T10:54:31.761Z,81.07
2022-09-28T10:55:31.979Z,81.13
2022-09-28T10:56:32.205Z,81.13
2022-09-28T10:57:31.359Z,82.36
2022-09-28T10:58:31.560Z,81.24
2022-09-28T10:59:31.795Z,79.91
2022-09-28T11:00:31.987Z,80.83
2022-09-28T11:01:32.259Z,80.28
2022-09-28T11:02:35.693Z,79.46
2022-09-28T11:03:31.587Z,81.20
2022-09-28T11:04:32.756Z,81.40
2022-09-28T11:05:32.013Z,78.54
2022-09-28T11:06:31.163Z,78.54
2022-09-28T11:07:31.427Z,78.68
2022-09-28T11:08:31.596Z,77.86
2022-09-28T11:09:31.770Z,79.19
2022-09-28T11:10:31.955Z,78.78
2022-09-28T11:11:32.244Z,78.88
2022-09-28T11:12:31.261Z,79.09
2022-09-28T11:13:31.455Z,78.38
2022-09-28T11:14:31.773Z,77.97
2022-09-28T11:15:31.819Z,77.45
2022-09-28T11:16:32.049Z,78.11
2022-09-28T11:17:31.218Z,79.13
2022-09-28T11:18:31.349Z,78.61
2022-09-28T11:19:31.543Z,79.23
2022-09-28T11:20:31.684Z,78.82
2022-09-28T11:21:31.897Z,79.43
2022-09-28T11:22:31.038Z,80.21
2022-09-28T11:23:31.412Z,80.01
2022-09-28T11:24:31.382Z,79.39
2022-09-28T11:25:31.566Z,80.32
2022-09-28T11:26:31.745Z,79.80
2022-09-28T11:27:31.925Z,80.69
2022-09-28T11:28:31.052Z,80.58
2022-09-28T11:29:31.262Z,79.05
2022-09-28T11:30:31.496Z,78.91
2022-09-28T11:31:31.601Z,80.30
2022-09-28T11:32:31.749Z,77.25
2022-09-28T11:33:30.866Z,77.14
2022-09-28T11:34:57.392Z,78.57
2022-09-28T11:35:32.483Z,79.08
2022-09-28T11:36:31.385Z,80.51
2022-09-28T11:37:31.549Z,77.96
2022-09-28T11:38:31.751Z,77.08
2022-09-28T11:39:30.871Z,77.48
2022-09-28T11:40:31.125Z,77.59
2022-09-28T11:41:31.819Z,78.54
2022-09-28T11:42:31.411Z,77.83
2022-09-28T11:43:31.545Z,77.62
2022-09-28T11:44:32.691Z,78.85
2022-09-28T11:45:30.827Z,78.85
2022-09-28T11:46:31.080Z,79.66
2022-09-28T11:47:31.162Z,78.34
2022-09-28T11:48:31.301Z,78.13
2022-09-28T11:49:31.484Z,78.95
2022-09-28T11:50:30.622Z,78.34
2022-09-28T11:51:30.778Z,78.44
2022-09-28T11:52:30.972Z,78.44
2022-09-28T11:53:31.090Z,79.77
2022-09-28T11:54:31.273Z,80.69
2022-09-28T11:55:31.437Z,79.46
2022-09-28T11:56:30.552Z,79.46
2022-09-28T11:57:30.711Z,79.97
2022-09-28T11:58:30.915Z,79.57
2022-09-28T11:59:31.042Z,79.12
2022-09-28T12:00:31.283Z,77.38
2022-09-28T12:01:31.390Z,77.79
2022-09-28T12:02:30.581Z,78.67
2022-09-28T12:03:30.895Z,77.96
2022-09-28T12:04:31.085Z,76.39
2022-09-28T12:05:31.029Z,75.34
2022-09-28T12:06:31.188Z,76.15
2022-09-28T12:07:31.364Z,76.46
2022-09-28T12:08:30.464Z,76.97
2022-09-28T12:09:31.715Z,75.74
2022-09-28T12:10:30.765Z,73.91
2022-09-28T12:11:30.922Z,74.11
2022-09-28T12:12:32.036Z,74.55
2022-09-28T12:13:30.234Z,73.84
2022-09-28T12:14:30.348Z,73.64
2022-09-28T12:15:38.221Z,75.68
2022-09-28T12:17:31.842Z,74.15
2022-09-28T12:18:30.905Z,73.13
2022-09-28T12:19:31.060Z,73.03
2022-09-28T12:20:31.344Z,73.77
2022-09-28T12:21:30.279Z,74.38
2022-09-28T12:22:30.451Z,73.77
2022-09-28T12:23:30.615Z,74.38
2022-09-28T12:24:30.703Z,73.77
2022-09-28T12:25:30.900Z,75.20
2022-09-28T12:26:35.834Z,76.02
2022-09-28T12:27:31.217Z,76.73
2022-09-28T12:28:30.380Z,75.51
2022-09-28T12:29:30.523Z,75.82
2022-09-28T12:30:30.690Z,75.71
2022-09-28T12:31:30.823Z,76.63
2022-09-28T12:32:31.022Z,76.02
2022-09-28T12:33:31.195Z,76.84
2022-09-28T12:34:30.297Z,75.71
2022-09-28T12:35:30.455Z,76.53
2022-09-28T12:36:30.631Z,77.14
2022-09-28T12:37:30.880Z,75.61
2022-09-28T12:38:31.088Z,75.71
2022-09-28T12:39:46.723Z,75.82
2022-09-28T12:40:36.552Z,76.02
2022-09-28T12:41:30.402Z,74.29
2022-09-28T12:42:30.568Z,74.49
2022-09-28T12:43:30.715Z,74.90
2022-09-28T12:44:29.968Z,75.51
2022-09-28T12:45:38.472Z,75.00
2022-09-28T12:46:31.258Z,75.20
2022-09-28T12:47:30.297Z,75.41
2022-09-28T12:48:30.525Z,75.41
2022-09-28T12:50:40.820Z,75.20
2022-09-28T12:51:31.007Z,75.71
2022-09-28T12:52:30.164Z,75.20
2022-09-28T12:53:30.258Z,74.79
2022-09-28T12:54:30.418Z,76.93
2022-09-28T12:55:30.641Z,75.10